Time;durP1;ratioP1;P1;durP2;ratioP2;P2;SDS_P1;SDS_P2;PMS_P1;PMS_P2;Temp;Humidity;BMP_temperature;BMP_pressure;BME280_temperature;BME280_humidity;BME280_pressure;Samples;Min_cycle;Max_cycle;Signal;HPM_P1;HPM_P2
2023/03/03 05:02:35;;;;;;;6.22;5.10;;;2.50;99.90;;;;;;4957978;23;20229;-67
2023/03/03 05:05:01;;;;;;;4.32;4.00;;;2.50;99.90;;;;;;4930173;29;20708;-66
2023/03/03 05:07:28;;;;;;;4.78;4.40;;;2.50;99.90;;;;;;4918282;29;20687;-67
2023/03/03 05:09:55;;;;;;;12.70;3.70;;;2.50;99.90;;;;;;4929688;29;20237;-67
2023/03/03 05:12:21;;;;;;;3.83;3.50;;;2.50;99.90;;;;;;4904448;29;20226;-67
2023/03/03 05:14:48;;;;;;;5.90;5.47;;;2.50;99.90;;;;;;4910607;29;20206;-67
2023/03/03 05:17:15;;;;;;;7.85;5.15;;;2.50;99.90;;;;;;4912792;29;20214;-68
2023/03/03 05:19:43;;;;;;;5.00;4.63;;;2.40;99.90;;;;;;4898085;29;20211;-69
2023/03/03 05:22:10;;;;;;;6.10;3.95;;;2.50;99.90;;;;;;4907610;29;20227;-66
2023/03/03 05:24:37;;;;;;;7.55;4.68;;;2.50;99.90;;;;;;4911861;29;20220;-67
2023/03/03 05:27:03;;;;;;;7.07;6.47;;;2.40;99.90;;;;;;4904810;29;20242;-68
2023/03/03 05:29:30;;;;;;;9.50;7.28;;;2.40;99.90;;;;;;4907590;29;20211;-68
2023/03/03 05:31:57;;;;;;;11.52;5.75;;;2.40;99.90;;;;;;4909592;29;20294;-68
2023/03/03 05:34:24;;;;;;;6.40;6.03;;;2.40;99.90;;;;;;4906920;29;20206;-67
2023/03/03 05:36:52;;;;;;;6.57;5.63;;;2.40;99.90;;;;;;4907210;29;21944;-66
2023/03/03 05:39:18;;;;;;;5.13;4.47;;;2.40;99.90;;;;;;4905881;29;20226;-67
2023/03/03 05:41:45;;;;;;;11.05;7.93;;;2.50;99.90;;;;;;4911088;29;20227;-69
2023/03/03 05:44:12;;;;;;;13.05;6.63;;;2.40;99.90;;;;;;4907171;29;20210;-68
2023/03/03 05:46:39;;;;;;;11.32;6.93;;;2.50;99.90;;;;;;4911823;29;20687;-68
2023/03/03 05:49:05;;;;;;;11.55;5.97;;;2.50;99.90;;;;;;4908180;29;20223;-68
2023/03/03 05:51:32;;;;;;;5.70;5.22;;;2.50;99.90;;;;;;4901871;29;20231;-68
2023/03/03 05:54:00;;;;;;;10.40;5.28;;;2.50;99.90;;;;;;4904024;29;20210;-69
2023/03/03 05:56:27;;;;;;;4.50;4.30;;;2.50;99.90;;;;;;4903968;29;20206;-68
2023/03/03 05:58:53;;;;;;;8.27;4.05;;;2.50;99.90;;;;;;4907846;29;20234;-67
2023/03/03 06:01:21;;;;;;;6.70;6.00;;;2.50;99.90;;;;;;4908368;29;20263;-68
2023/03/03 06:03:47;;;;;;;9.85;5.63;;;2.50;99.90;;;;;;4908223;29;20238;-67
2023/03/03 06:06:15;;;;;;;29.45;5.85;;;2.50;99.90;;;;;;4901074;29;20227;-68
2023/03/03 06:08:42;;;;;;;4.90;4.50;;;2.50;99.90;;;;;;4904189;29;20214;-67
2023/03/03 06:11:11;;;;;;;3.55;3.38;;;2.50;99.90;;;;;;4905515;29;20231;-69
2023/03/03 06:13:38;;;;;;;13.18;3.33;;;2.50;99.90;;;;;;4910758;29;20258;-67
2023/03/03 06:16:05;;;;;;;15.10;4.85;;;2.40;99.90;;;;;;4909976;29;20206;-68
2023/03/03 06:18:32;;;;;;;11.20;6.47;;;2.40;99.90;;;;;;4912138;29;20211;-68
2023/03/03 06:20:59;;;;;;;15.15;5.10;;;2.50;99.90;;;;;;4905555;29;20605;-69
2023/03/03 06:23:26;;;;;;;5.75;5.18;;;2.40;99.90;;;;;;4905297;29;20278;-67
2023/03/03 06:25:53;;;;;;;6.75;3.13;;;2.40;99.90;;;;;;4901075;29;20234;-68
2023/03/03 06:28:21;;;;;;;6.28;5.50;;;2.50;99.90;;;;;;4912007;29;20206;-68
2023/03/03 06:30:47;;;;;;;9.40;7.07;;;2.40;99.90;;;;;;4913473;29;20231;-68
2023/03/03 06:33:14;;;;;;;5.60;4.57;;;2.50;99.90;;;;;;4914486;29;20625;-68
2023/03/03 06:35:41;;;;;;;10.60;5.68;;;2.50;99.90;;;;;;4905702;29;20207;-68
2023/03/03 06:38:07;;;;;;;4.68;4.22;;;2.50;99.90;;;;;;4907211;29;20211;-69
2023/03/03 06:40:34;;;;;;;6.47;5.88;;;2.50;99.90;;;;;;4913987;29;20556;-67
2023/03/03 06:43:02;;;;;;;3.00;2.83;;;2.50;99.90;;;;;;4912478;29;20310;-67
2023/03/03 06:45:30;;;;;;;8.45;6.68;;;2.50;99.90;;;;;;4911383;29;20657;-67
2023/03/03 06:47:56;;;;;;;5.45;3.05;;;2.50;99.90;;;;;;4910920;29;20893;-68
2023/03/03 06:50:23;;;;;;;17.08;5.28;;;2.50;99.90;;;;;;4914316;29;20214;-68
2023/03/03 06:53:05;;;;;;;16.00;7.78;;;2.50;99.90;;;;;;4910531;29;20211;-68
2023/03/03 06:55:31;;;;;;;5.93;4.43;;;2.50;99.90;;;;;;4914867;29;20202;-68
2023/03/03 06:57:59;;;;;;;7.50;7.00;;;2.50;99.90;;;;;;4913635;29;20215;-68
2023/03/03 07:00:27;;;;;;;7.75;3.75;;;2.50;99.90;;;;;;4904441;29;20207;-68
2023/03/03 07:02:59;;;;;;;4.47;4.15;;;2.40;99.90;;;;;;4914038;29;20229;-69
2023/03/03 07:05:28;;;;;;;4.18;2.78;;;2.40;99.90;;;;;;4907334;29;20214;-67
2023/03/03 07:07:55;;;;;;;6.72;6.05;;;2.40;99.90;;;;;;4909132;29;20223;-69
2023/03/03 07:10:25;;;;;;;6.95;3.10;;;2.50;99.90;;;;;;4913787;29;20213;-68
2023/03/03 07:12:51;;;;;;;4.85;4.40;;;2.50;99.90;;;;;;4911855;29;20578;-68
2023/03/03 07:15:23;;;;;;;4.75;4.32;;;2.50;99.90;;;;;;4908461;29;20211;-68
2023/03/03 07:17:54;;;;;;;10.02;7.47;;;2.50;99.90;;;;;;4910509;29;20230;-69
2023/03/03 07:20:25;;;;;;;4.18;3.95;;;2.50;99.90;;;;;;4909449;29;20552;-68
2023/03/03 07:22:52;;;;;;;6.00;3.88;;;2.60;99.90;;;;;;4911823;29;20206;-67
2023/03/03 07:25:30;;;;;;;5.35;4.80;;;2.60;99.90;;;;;;4911516;29;20289;-68
2023/03/03 07:28:00;;;;;;;7.47;6.25;;;2.60;99.90;;;;;;4909866;29;20203;-69
2023/03/03 07:30:29;;;;;;;7.25;4.85;;;2.60;99.90;;;;;;4909161;29;20278;-69
2023/03/03 07:32:57;;;;;;;9.00;8.25;;;2.70;99.90;;;;;;4910297;29;20227;-68
2023/03/03 07:35:36;;;;;;;7.88;6.15;;;2.70;99.90;;;;;;4907149;29;20224;-68
2023/03/03 07:38:03;;;;;;;5.20;4.70;;;2.70;99.90;;;;;;4912377;29;20226;-68
2023/03/03 07:40:36;;;;;;;7.78;3.65;;;2.70;99.90;;;;;;4912877;29;20226;-68
2023/03/03 07:43:26;;;;;;;4.45;3.83;;;2.70;99.90;;;;;;4910302;29;20203;-68
2023/03/03 07:45:54;;;;;;;2.53;2.40;;;2.80;99.90;;;;;;4904983;29;20664;-67
2023/03/03 07:48:26;;;;;;;10.18;6.03;;;2.80;99.90;;;;;;4907903;29;20304;-68
2023/03/03 07:50:55;;;;;;;8.02;4.00;;;2.80;99.90;;;;;;4905101;29;20715;-68
2023/03/03 07:53:26;;;;;;;5.32;4.93;;;2.80;99.90;;;;;;4898629;29;20211;-68
2023/03/03 07:55:54;;;;;;;6.82;6.25;;;2.80;99.90;;;;;;4912555;29;20680;-67
2023/03/03 07:58:24;;;;;;;2.65;2.53;;;2.80;99.90;;;;;;4906654;29;20305;-67
2023/03/03 08:01:27;;;;;;;11.20;4.93;;;2.80;99.90;;;;;;4912988;29;20325;-67
2023/03/03 08:03:54;;;;;;;15.52;4.63;;;2.90;99.90;;;;;;4909102;29;20214;-69
2023/03/03 08:06:44;;;;;;;6.38;6.07;;;2.80;99.90;;;;;;4901920;29;20231;-68
2023/03/03 08:09:29;;;;;;;4.85;4.63;;;2.90;99.90;;;;;;4908112;29;20203;-67
2023/03/03 08:12:00;;;;;;;6.05;5.57;;;2.90;99.90;;;;;;4911500;29;20237;-69
2023/03/03 08:14:29;;;;;;;5.20;4.65;;;2.90;99.90;;;;;;4903734;29;20397;-69
2023/03/03 08:16:56;;;;;;;10.32;3.85;;;2.90;99.90;;;;;;4903946;29;20663;-68
2023/03/03 08:19:23;;;;;;;6.35;5.85;;;2.90;99.90;;;;;;4908562;29;20289;-68
2023/03/03 08:21:52;;;;;;;3.08;2.78;;;2.80;99.90;;;;;;4914741;29;20244;-68
2023/03/03 08:24:19;;;;;;;2.63;2.53;;;2.80;99.90;;;;;;4911219;29;20206;-67
2023/03/03 08:26:46;;;;;;;3.50;3.28;;;2.80;99.90;;;;;;4916213;29;20237;-68
2023/03/03 08:29:12;;;;;;;6.05;3.42;;;2.70;99.90;;;;;;4905686;29;20203;-67
2023/03/03 08:31:39;;;;;;;21.70;4.25;;;2.70;99.90;;;;;;4898067;29;20235;-68
2023/03/03 08:34:06;;;;;;;4.32;3.92;;;2.70;99.90;;;;;;4909173;29;20226;-68
2023/03/03 08:36:32;;;;;;;3.33;2.13;;;2.80;99.90;;;;;;4911241;29;20267;-69
2023/03/03 08:39:01;;;;;;;10.27;4.68;;;2.80;99.90;;;;;;4916655;29;20228;-66
2023/03/03 08:41:27;;;;;;;13.95;5.68;;;2.90;99.90;;;;;;4917062;29;20234;-67
2023/03/03 08:43:54;;;;;;;7.97;6.90;;;3.00;99.90;;;;;;4915886;29;20210;-69
2023/03/03 08:46:21;;;;;;;7.13;6.40;;;3.10;99.90;;;;;;4911927;29;20226;-68
2023/03/03 08:48:48;;;;;;;6.05;5.47;;;3.10;99.90;;;;;;4907467;29;20240;-68
2023/03/03 08:51:15;;;;;;;17.08;9.88;;;3.20;99.90;;;;;;4913887;29;21006;-68
2023/03/03 08:53:41;;;;;;;18.00;6.70;;;3.30;99.90;;;;;;4911344;29;20214;-67
2023/03/03 08:56:10;;;;;;;13.30;7.57;;;3.30;99.90;;;;;;4907766;29;20233;-68
2023/03/03 08:58:38;;;;;;;6.63;5.80;;;3.30;99.90;;;;;;4911019;29;20218;-68
2023/03/03 09:01:05;;;;;;;3.63;3.47;;;3.30;99.90;;;;;;4913407;29;20269;-68
2023/03/03 09:03:32;;;;;;;11.10;5.05;;;3.40;99.90;;;;;;4913275;29;20207;-67
2023/03/03 09:05:58;;;;;;;5.53;4.95;;;3.40;99.90;;;;;;4912590;29;20666;-67
2023/03/03 09:08:25;;;;;;;6.10;5.68;;;3.40;99.90;;;;;;4911951;29;20253;-68
2023/03/03 09:10:52;;;;;;;4.35;4.05;;;3.50;99.90;;;;;;4912194;29;20237;-68
2023/03/03 09:13:20;;;;;;;10.88;4.88;;;3.50;99.90;;;;;;4902780;29;20212;-68
2023/03/03 09:15:47;;;;;;;11.23;5.20;;;3.50;99.90;;;;;;4906502;29;20208;-67
2023/03/03 09:18:17;;;;;;;5.78;3.45;;;3.50;99.90;;;;;;4907944;29;20234;-67
2023/03/03 09:20:47;;;;;;;7.55;5.10;;;3.50;99.90;;;;;;4906939;29;20231;-68
2023/03/03 09:23:32;;;;;;;7.32;5.30;;;3.60;99.90;;;;;;4913136;29;20622;-69
2023/03/03 09:26:20;;;;;;;19.23;10.55;;;3.70;99.90;;;;;;4912288;29;20601;-67
2023/03/03 09:28:49;;;;;;;5.65;5.10;;;3.70;99.90;;;;;;4911461;29;20217;-68
2023/03/03 09:31:24;;;;;;;5.30;5.00;;;3.70;99.90;;;;;;4904988;29;20746;-68
2023/03/03 09:33:56;;;;;;;3.70;3.40;;;3.70;99.90;;;;;;4912229;29;20667;-69
2023/03/03 09:36:25;;;;;;;7.30;5.15;;;3.70;99.90;;;;;;4906167;29;20202;-68
2023/03/03 09:38:54;;;;;;;11.15;4.53;;;3.80;99.90;;;;;;4906495;29;20210;-69
2023/03/03 09:41:54;;;;;;;2.80;2.60;;;3.80;99.90;;;;;;4902242;29;20285;-68
2023/03/03 09:45:01;;;;;;;4.20;3.90;;;3.80;99.90;;;;;;4908547;29;20226;-68
2023/03/03 09:47:41;;;;;;;3.78;3.42;;;3.80;99.90;;;;;;4897455;29;20604;-68
2023/03/03 09:50:29;;;;;;;5.20;3.78;;;3.90;99.90;;;;;;4904048;29;20209;-68
2023/03/03 09:53:10;;;;;;;4.55;4.28;;;3.90;99.90;;;;;;4908847;29;20214;-67
2023/03/03 09:55:44;;;;;;;3.53;2.47;;;3.90;99.90;;;;;;4902782;29;20231;-67
2023/03/03 09:58:29;;;;;;;6.72;3.45;;;3.90;99.90;;;;;;4904234;29;20217;-66
2023/03/03 10:01:07;;;;;;;4.22;3.83;;;3.90;99.90;;;;;;4910846;29;20245;-66
2023/03/03 10:03:59;;;;;;;3.40;2.75;;;4.00;99.90;;;;;;4910501;29;20203;-66
2023/03/03 10:06:31;;;;;;;5.13;4.30;;;4.20;99.90;;;;;;4899784;29;20203;-66
2023/03/03 10:09:17;;;;;;;7.80;6.53;;;4.30;99.90;;;;;;4908627;29;20230;-68
2023/03/03 10:11:54;;;;;;;5.13;4.72;;;4.30;99.90;;;;;;4905818;29;20598;-67
2023/03/03 10:14:56;;;;;;;15.02;5.15;;;4.40;99.90;;;;;;4910238;29;20564;-68
2023/03/03 10:17:33;;;;;;;4.65;4.25;;;4.50;99.90;;;;;;4912605;29;20242;-68
2023/03/03 10:20:17;;;;;;;9.57;4.75;;;4.60;99.90;;;;;;4915004;29;20267;-68
2023/03/03 10:22:52;;;;;;;6.43;4.18;;;4.50;99.90;;;;;;4911121;29;20207;-68
2023/03/03 10:25:28;;;;;;;4.00;3.60;;;4.60;99.90;;;;;;4905550;29;20293;-67
2023/03/03 10:28:29;;;;;;;7.90;4.03;;;4.60;99.90;;;;;;4906411;29;20240;-68
2023/03/03 10:31:05;;;;;;;4.88;4.00;;;4.70;99.90;;;;;;4883821;29;20397;-67
2023/03/03 10:33:41;;;;;;;7.93;4.65;;;4.70;99.90;;;;;;4913684;29;20203;-67
2023/03/03 10:36:28;;;;;;;5.30;4.80;;;4.70;99.90;;;;;;4911178;29;20207;-66
2023/03/03 10:39:04;;;;;;;3.95;3.47;;;4.70;99.90;;;;;;4898337;29;20590;-67
2023/03/03 10:41:46;;;;;;;4.30;3.80;;;4.70;99.90;;;;;;4909229;29;20231;-67
2023/03/03 10:44:38;;;;;;;3.65;3.30;;;4.70;99.90;;;;;;4916270;29;20222;-66
2023/03/03 10:47:35;;;;;;;4.68;4.20;;;4.80;99.90;;;;;;4906738;29;20246;-67
2023/03/03 10:50:15;;;;;;;3.95;3.83;;;4.90;99.90;;;;;;4912105;29;20210;-69
2023/03/03 10:52:47;;;;;;;1.95;1.83;;;5.00;99.90;;;;;;4906033;29;20224;-69
2023/03/03 10:55:30;;;;;;;7.22;3.25;;;5.10;99.90;;;;;;4911055;29;20222;-69
2023/03/03 10:58:13;;;;;;;8.25;3.67;;;5.20;99.90;;;;;;4906252;29;20213;-68
2023/03/03 11:00:45;;;;;;;4.68;3.15;;;5.30;99.90;;;;;;4912182;29;20242;-69
2023/03/03 11:03:43;;;;;;;3.05;2.85;;;5.30;99.90;;;;;;4908641;29;20668;-67
2023/03/03 11:06:20;;;;;;;4.18;3.28;;;5.30;99.90;;;;;;4909734;29;20215;-68
2023/03/03 11:08:52;;;;;;;3.58;3.28;;;5.40;99.90;;;;;;4910686;29;20245;-69
2023/03/03 11:11:32;;;;;;;4.35;2.92;;;5.60;99.90;;;;;;4907846;29;20727;-67
2023/03/03 11:14:05;;;;;;;3.65;3.50;;;5.70;99.90;;;;;;4910509;29;20203;-67
2023/03/03 11:16:41;;;;;;;6.93;4.53;;;5.90;99.90;;;;;;4910829;29;20210;-67
2023/03/03 11:19:26;;;;;;;3.85;3.08;;;5.90;99.90;;;;;;4914267;29;20694;-67
2023/03/03 11:22:06;;;;;;;4.70;3.40;;;5.90;99.90;;;;;;4904539;29;20238;-67
2023/03/03 11:24:44;;;;;;;5.80;2.45;;;5.80;99.90;;;;;;4913943;29;20310;-69
2023/03/03 11:27:40;;;;;;;3.58;2.15;;;5.90;99.90;;;;;;4915544;29;20608;-69
2023/03/03 11:30:28;;;;;;;7.30;2.88;;;6.10;99.90;;;;;;4939588;23;20230;-69
2023/03/03 11:33:03;;;;;;;2.40;2.13;;;6.20;99.90;;;;;;4926140;29;20609;-69
2023/03/03 11:35:37;;;;;;;3.67;3.45;;;6.30;99.90;;;;;;4925884;29;20659;-69
2023/03/03 11:38:23;;;;;;;5.50;3.22;;;6.30;99.90;;;;;;4933189;29;20209;-69
2023/03/03 11:40:54;;;;;;;3.75;3.47;;;6.40;99.90;;;;;;4919232;29;20234;-69
2023/03/03 11:43:26;;;;;;;7.15;4.60;;;6.40;99.90;;;;;;4913094;29;20301;-70
2023/03/03 11:45:57;;;;;;;6.22;5.45;;;6.40;99.90;;;;;;4917130;29;20206;-70
2023/03/03 11:48:34;;;;;;;3.33;2.53;;;6.30;99.90;;;;;;4907909;29;20219;-70
2023/03/03 11:51:05;;;;;;;6.68;4.43;;;6.20;99.90;;;;;;4910748;29;20240;-69
2023/03/03 11:53:45;;;;;;;2.47;2.05;;;6.10;99.90;;;;;;4905317;29;20215;-69
2023/03/03 11:56:20;;;;;;;4.03;3.15;;;6.10;99.90;;;;;;4904516;29;20203;-69
2023/03/03 11:58:57;;;;;;;5.05;4.70;;;6.10;99.90;;;;;;4907606;29;20219;-70
2023/03/03 12:01:33;;;;;;;8.98;4.03;;;6.30;99.90;;;;;;4917541;29;20901;-69
2023/03/03 12:04:03;;;;;;;3.83;3.60;;;6.50;99.90;;;;;;4915356;29;20229;-72
2023/03/03 12:06:40;;;;;;;3.75;3.55;;;6.50;99.90;;;;;;4914086;29;20215;-70
2023/03/03 12:09:23;;;;;;;3.63;3.33;;;6.50;99.90;;;;;;4916355;29;20255;-67
2023/03/03 12:11:53;;;;;;;3.25;2.90;;;6.50;99.90;;;;;;4919216;29;20294;-71
2023/03/03 12:14:37;;;;;;;6.20;2.65;;;6.60;99.90;;;;;;4911248;29;20211;-71
2023/03/03 12:17:13;;;;;;;5.82;5.32;;;6.80;99.90;;;;;;4914656;29;20240;-72
2023/03/03 12:19:48;;;;;;;5.43;3.60;;;6.70;99.90;;;;;;4919062;29;20221;-71
2023/03/03 12:22:33;;;;;;;5.60;5.07;;;6.90;99.90;;;;;;4914198;29;20210;-70
2023/03/03 12:25:22;;;;;;;4.63;2.40;;;7.10;99.90;;;;;;4917455;29;20218;-70
2023/03/03 12:27:58;;;;;;;6.18;3.00;;;7.30;99.90;;;;;;4912951;29;20266;-68
2023/03/03 12:30:42;;;;;;;5.70;3.50;;;7.40;99.90;;;;;;4905037;29;20278;-68
2023/03/03 12:33:19;;;;;;;3.80;3.15;;;7.50;99.90;;;;;;4912884;29;20206;-69
2023/03/03 12:35:58;;;;;;;3.88;2.78;;;7.60;99.90;;;;;;4913708;29;20210;-69
2023/03/03 12:38:33;;;;;;;4.63;4.28;;;7.60;99.90;;;;;;4910159;29;20217;-70
2023/03/03 12:41:07;;;;;;;4.47;4.07;;;7.60;99.90;;;;;;4909913;29;20242;-69
2023/03/03 12:43:47;;;;;;;5.05;4.85;;;7.70;99.90;;;;;;4912208;29;20588;-69
2023/03/03 12:46:20;;;;;;;6.70;4.82;;;7.70;99.90;;;;;;4904473;29;20226;-69
2023/03/03 12:48:48;;;;;;;3.13;2.72;;;7.70;99.90;;;;;;4907047;29;20317;-71
2023/03/03 12:51:25;;;;;;;3.25;2.95;;;7.70;99.90;;;;;;4914346;29;20231;-71
2023/03/03 12:54:38;;;;;;;5.28;4.15;;;7.60;99.90;;;;;;4907453;29;20266;-70
2023/03/03 12:57:18;;;;;;;2.65;2.42;;;7.50;99.90;;;;;;4899875;29;20215;-70
2023/03/03 12:59:54;;;;;;;4.88;4.10;;;7.40;99.90;;;;;;4904929;29;20306;-70
2023/03/03 13:02:39;;;;;;;3.40;2.90;;;7.40;99.90;;;;;;4917461;29;20231;-71
2023/03/03 13:05:19;;;;;;;1.95;1.75;;;7.30;99.90;;;;;;4921899;29;20215;-72
2023/03/03 13:07:50;;;;;;;5.75;4.68;;;7.40;99.90;;;;;;4914125;29;20238;-73
2023/03/03 13:10:23;;;;;;;3.92;2.05;;;7.40;99.90;;;;;;4913469;29;20230;-70
2023/03/03 13:12:56;;;;;;;3.90;3.60;;;7.40;99.90;;;;;;4917105;29;20215;-71
2023/03/03 13:15:26;;;;;;;4.80;3.28;;;7.40;99.90;;;;;;4924610;29;20206;-71
2023/03/03 13:18:10;;;;;;;9.68;2.10;;;7.40;99.90;;;;;;4915228;29;20226;-72
2023/03/03 13:20:44;;;;;;;1.95;1.67;;;7.20;99.90;;;;;;4920697;29;20241;-71
2023/03/03 13:23:21;;;;;;;4.72;4.43;;;7.00;99.90;;;;;;4906588;29;20207;-71
2023/03/03 13:25:52;;;;;;;4.75;4.35;;;7.00;99.90;;;;;;4922358;29;20229;-71
2023/03/03 13:28:28;;;;;;;1.33;1.33;;;6.90;99.90;;;;;;4914518;29;20226;-71
2023/03/03 13:31:01;;;;;;;6.20;3.70;;;6.90;99.90;;;;;;4925270;29;20264;-71
2023/03/03 13:33:30;;;;;;;4.63;2.80;;;6.90;99.90;;;;;;4915437;29;20206;-71
2023/03/03 13:36:00;;;;;;;2.70;2.50;;;6.90;99.90;;;;;;4910315;29;20214;-71
2023/03/03 13:38:31;;;;;;;2.15;1.95;;;6.80;99.90;;;;;;4920337;29;20210;-70
2023/03/03 13:41:06;;;;;;;4.93;3.05;;;6.80;99.90;;;;;;4922915;29;20234;-68
2023/03/03 13:43:43;;;;;;;3.38;3.05;;;6.80;99.90;;;;;;4914193;29;20215;-70
2023/03/03 13:46:16;;;;;;;5.30;1.92;;;6.80;99.90;;;;;;4909804;29;20207;-70
2023/03/03 13:48:56;;;;;;;2.30;2.13;;;6.80;99.90;;;;;;4921420;29;20227;-72
2023/03/03 13:51:32;;;;;;;1.45;1.42;;;6.80;99.90;;;;;;4910109;29;20239;-72
2023/03/03 13:54:09;;;;;;;3.13;2.83;;;6.90;99.90;;;;;;4919966;29;20211;-71
2023/03/03 13:56:58;;;;;;;2.92;1.92;;;7.00;99.90;;;;;;4927671;29;20210;-71
2023/03/03 13:59:36;;;;;;;6.10;2.88;;;7.00;99.90;;;;;;4921951;29;20210;-70
2023/03/03 14:02:20;;;;;;;3.58;3.38;;;7.00;99.90;;;;;;4925417;29;20238;-71
2023/03/03 14:04:53;;;;;;;5.75;2.05;;;7.00;99.90;;;;;;4924937;29;20207;-71
2023/03/03 14:07:24;;;;;;;3.30;2.00;;;7.00;99.90;;;;;;4921952;29;20653;-71
2023/03/03 14:09:59;;;;;;;1.65;1.55;;;7.00;99.90;;;;;;4925055;29;20303;-72
2023/03/03 14:12:35;;;;;;;3.85;3.50;;;7.10;99.90;;;;;;4922566;29;20211;-71
2023/03/03 14:15:16;;;;;;;2.63;2.42;;;7.20;99.90;;;;;;4925788;29;20606;-69
2023/03/03 14:18:02;;;;;;;1.83;1.73;;;7.20;99.90;;;;;;4917216;29;20211;-70
2023/03/03 14:20:31;;;;;;;1.48;0.93;;;7.30;99.90;;;;;;4915719;29;20234;-70
2023/03/03 14:23:01;;;;;;;4.10;1.35;;;7.30;99.90;;;;;;4912971;29;20214;-70
2023/03/03 14:25:57;;;;;;;1.65;1.55;;;7.20;99.90;;;;;;4914489;29;20210;-73
2023/03/03 14:28:26;;;;;;;2.17;2.03;;;7.20;99.90;;;;;;4914027;29;20223;-71
2023/03/03 14:30:56;;;;;;;1.80;1.42;;;7.20;99.90;;;;;;4912161;29;20242;-71
2023/03/03 14:33:31;;;;;;;2.58;1.42;;;7.20;99.90;;;;;;4912076;29;20219;-71
2023/03/03 14:36:04;;;;;;;4.70;2.63;;;7.20;99.90;;;;;;4915271;29;20209;-73
2023/03/03 14:38:41;;;;;;;10.40;3.15;;;7.30;99.90;;;;;;4912438;29;20321;-70
2023/03/03 14:41:17;;;;;;;4.18;2.35;;;7.30;99.90;;;;;;4916566;29;20231;-72
2023/03/03 14:43:46;;;;;;;2.58;2.28;;;7.30;99.90;;;;;;4908184;29;20218;-69
2023/03/03 14:46:38;;;;;;;3.90;3.63;;;7.30;99.90;;;;;;4914915;29;20206;-70
2023/03/03 14:49:14;;;;;;;1.75;1.50;;;7.40;99.90;;;;;;4918097;29;20338;-71
2023/03/03 14:51:43;;;;;;;2.45;2.28;;;7.40;99.90;;;;;;4920128;29;20656;-71
2023/03/03 14:54:20;;;;;;;3.15;2.70;;;7.30;99.90;;;;;;4913609;29;20221;-71
2023/03/03 14:57:03;;;;;;;1.55;1.35;;;7.30;99.90;;;;;;4920367;29;20217;-71
2023/03/03 14:59:31;;;;;;;2.20;2.05;;;7.30;99.90;;;;;;4913610;29;20556;-73
2023/03/03 15:02:21;;;;;;;2.45;1.23;;;7.30;99.90;;;;;;4915846;29;20227;-72
2023/03/03 15:04:48;;;;;;;1.50;1.50;;;7.20;99.90;;;;;;4914208;29;20215;-71
2023/03/03 15:07:33;;;;;;;1.00;1.00;;;7.20;99.90;;;;;;4917860;29;20218;-70
2023/03/03 15:10:00;;;;;;;1.20;1.10;;;7.20;99.90;;;;;;4904348;29;20231;-72
2023/03/03 15:12:35;;;;;;;1.75;1.13;;;7.20;99.90;;;;;;4905870;29;20207;-70
2023/03/03 15:15:18;;;;;;;5.72;1.65;;;7.10;99.90;;;;;;4914205;29;20635;-70
2023/03/03 15:17:57;;;;;;;0.60;0.60;;;7.20;99.90;;;;;;4905442;29;20265;-69
2023/03/03 15:20:35;;;;;;;4.45;1.48;;;7.20;99.90;;;;;;4914667;29;20227;-71
2023/03/03 15:23:14;;;;;;;1.15;1.15;;;7.20;99.90;;;;;;4917992;29;20218;-70
2023/03/03 15:25:47;;;;;;;1.05;1.05;;;7.20;99.90;;;;;;4918399;29;20226;-71
2023/03/03 15:28:31;;;;;;;2.72;1.05;;;7.20;99.90;;;;;;4918707;29;20273;-70
2023/03/03 15:31:07;;;;;;;4.00;1.13;;;7.10;99.90;;;;;;4916044;29;20234;-70
2023/03/03 15:33:45;;;;;;;0.70;0.55;;;7.10;99.90;;;;;;4919210;29;20558;-71
2023/03/03 15:36:23;;;;;;;0.55;0.55;;;7.00;99.90;;;;;;4913875;29;20206;-69
2023/03/03 15:39:01;;;;;;;1.33;1.33;;;7.00;99.90;;;;;;4919672;29;20207;-71
2023/03/03 15:41:38;;;;;;;1.70;1.70;;;6.90;99.90;;;;;;4915874;29;20222;-71
2023/03/03 15:44:12;;;;;;;0.45;0.45;;;6.90;99.90;;;;;;4908535;29;20607;-70
2023/03/03 15:46:53;;;;;;;1.70;0.73;;;6.90;99.90;;;;;;4914473;29;20538;-71
2023/03/03 15:49:39;;;;;;;1.02;1.02;;;6.90;99.90;;;;;;4907279;29;20223;-71
2023/03/03 15:52:22;;;;;;;0.45;0.45;;;6.90;99.90;;;;;;4919926;29;20309;-71
2023/03/03 15:54:59;;;;;;;1.25;0.55;;;6.90;99.90;;;;;;4903780;29;20225;-70
2023/03/03 15:57:38;;;;;;;3.75;1.30;;;6.90;99.90;;;;;;4914416;29;20812;-70
2023/03/03 16:00:32;;;;;;;0.80;0.80;;;6.90;99.90;;;;;;4906617;29;20735;-71
2023/03/03 16:03:08;;;;;;;0.88;0.88;;;6.90;99.90;;;;;;4911776;29;20302;-70
2023/03/03 16:05:44;;;;;;;1.50;1.50;;;6.90;99.90;;;;;;4904757;29;20211;-71
2023/03/03 16:08:14;;;;;;;2.10;2.00;;;6.80;99.90;;;;;;4898478;29;20203;-71
2023/03/03 16:10:51;;;;;;;1.67;1.60;;;6.80;99.90;;;;;;4915274;29;20238;-70
2023/03/03 16:13:38;;;;;;;1.83;1.73;;;6.80;99.90;;;;;;4909054;29;20260;-70
2023/03/03 16:16:13;;;;;;;2.35;2.25;;;6.80;99.90;;;;;;4906357;29;20230;-68
2023/03/03 16:18:49;;;;;;;2.42;1.58;;;6.80;99.90;;;;;;4914370;29;20214;-70
2023/03/03 16:21:26;;;;;;;8.18;3.80;;;6.70;99.90;;;;;;4915952;29;20612;-67
2023/03/03 16:23:56;;;;;;;2.88;2.17;;;6.70;99.90;;;;;;4913455;29;20211;-70
2023/03/03 16:26:36;;;;;;;2.38;2.28;;;6.70;99.90;;;;;;4914431;29;20312;-70
2023/03/03 16:29:32;;;;;;;2.88;2.65;;;6.70;99.90;;;;;;4901850;29;20878;-72
2023/03/03 16:32:08;;;;;;;1.88;1.77;;;6.60;99.90;;;;;;4911054;29;20238;-70
2023/03/03 16:34:43;;;;;;;6.53;2.00;;;6.60;99.90;;;;;;4912607;29;20233;-68
2023/03/03 16:37:22;;;;;;;1.75;1.42;;;6.60;99.90;;;;;;4907630;29;20307;-71
2023/03/03 16:39:55;;;;;;;2.28;1.42;;;6.60;99.90;;;;;;4908226;29;20202;-72
2023/03/03 16:42:27;;;;;;;1.52;1.40;;;6.50;99.90;;;;;;4911525;29;20293;-72
2023/03/03 16:45:24;;;;;;;0.77;0.77;;;6.50;99.90;;;;;;4912372;29;20222;-68
2023/03/03 16:48:06;;;;;;;6.78;1.45;;;6.50;99.90;;;;;;4907252;29;20214;-66
2023/03/03 16:50:44;;;;;;;1.83;1.75;;;6.50;99.90;;;;;;4907013;29;20242;-66
2023/03/03 16:53:25;;;;;;;3.80;2.22;;;6.50;99.90;;;;;;4907684;29;20214;-67
2023/03/03 16:56:02;;;;;;;2.03;1.85;;;6.40;99.90;;;;;;4907108;29;20207;-69
2023/03/03 16:58:41;;;;;;;5.70;1.33;;;6.40;99.90;;;;;;4905358;29;20207;-68
2023/03/03 17:01:17;;;;;;;2.42;2.33;;;6.40;99.90;;;;;;4905849;29;20234;-68
2023/03/03 17:03:59;;;;;;;5.75;2.17;;;6.30;99.90;;;;;;4910562;29;20221;-68
2023/03/03 17:06:34;;;;;;;2.85;1.73;;;6.30;99.90;;;;;;4904878;29;20228;-67
2023/03/03 17:09:23;;;;;;;2.08;2.08;;;6.30;99.90;;;;;;4897241;29;20230;-67
2023/03/03 17:12:01;;;;;;;1.60;1.60;;;6.30;99.90;;;;;;4901270;29;20235;-69
2023/03/03 17:14:51;;;;;;;0.73;0.73;;;6.20;99.90;;;;;;4904965;29;20214;-68
2023/03/03 17:17:28;;;;;;;1.60;1.50;;;6.20;99.90;;;;;;4903628;29;20214;-68
2023/03/03 17:20:05;;;;;;;1.63;1.13;;;6.20;99.90;;;;;;4905633;29;20246;-68
2023/03/03 17:22:45;;;;;;;1.33;1.33;;;6.20;99.90;;;;;;4911639;29;20225;-70
2023/03/03 17:25:21;;;;;;;1.42;1.38;;;6.20;99.90;;;;;;4909075;29;20330;-70
2023/03/03 17:28:03;;;;;;;3.88;2.35;;;6.20;99.90;;;;;;4903629;29;20238;-69
2023/03/03 17:30:39;;;;;;;1.92;1.65;;;6.10;99.90;;;;;;4904786;29;20544;-70
2023/03/03 17:33:25;;;;;;;1.05;1.05;;;6.10;99.90;;;;;;4905591;29;20218;-69
2023/03/03 17:36:03;;;;;;;1.58;1.48;;;6.10;99.90;;;;;;4906994;29;20211;-70
2023/03/03 17:38:39;;;;;;;1.40;1.40;;;6.10;99.90;;;;;;4905629;29;21139;-70
2023/03/03 17:41:16;;;;;;;0.98;0.98;;;6.10;99.90;;;;;;4906812;29;20230;-69
2023/03/03 17:43:51;;;;;;;0.82;0.82;;;6.10;99.90;;;;;;4905451;29;20312;-69
2023/03/03 17:46:25;;;;;;;2.80;1.40;;;6.10;99.90;;;;;;4912414;29;20218;-68
2023/03/03 17:49:21;;;;;;;2.28;2.08;;;6.10;99.90;;;;;;4904166;29;20237;-68
2023/03/03 17:52:27;;;;;;;6.90;4.15;;;6.10;99.90;;;;;;4901522;29;20230;-68
2023/03/03 17:55:15;;;;;;;2.22;2.13;;;6.10;99.90;;;;;;4899735;29;20652;-68
2023/03/03 17:58:03;;;;;;;1.23;1.20;;;6.00;99.90;;;;;;4905208;29;20226;-68
2023/03/03 18:00:43;;;;;;;3.35;1.92;;;6.00;99.90;;;;;;4906249;29;20230;-66
2023/03/03 18:03:37;;;;;;;1.67;1.58;;;6.00;99.90;;;;;;4901691;29;20218;-69
2023/03/03 18:06:47;;;;;;;3.88;3.63;;;6.00;99.90;;;;;;4907181;29;20325;-68
2023/03/03 18:09:24;;;;;;;2.72;2.00;;;6.00;99.90;;;;;;4894168;29;20269;-69
2023/03/03 18:12:02;;;;;;;3.95;1.90;;;6.00;99.90;;;;;;4901933;29;20230;-69
2023/03/03 18:15:09;;;;;;;0.93;0.90;;;6.00;99.90;;;;;;4906500;29;20214;-70
2023/03/03 18:18:02;;;;;;;5.13;3.55;;;6.00;99.90;;;;;;4911027;29;20663;-70
2023/03/03 18:20:39;;;;;;;5.55;3.47;;;6.00;99.90;;;;;;4905478;29;20652;-70
2023/03/03 18:23:28;;;;;;;2.00;2.00;;;6.00;99.90;;;;;;4901897;29;20217;-68
2023/03/03 18:25:57;;;;;;;1.85;1.38;;;6.00;99.90;;;;;;4912665;29;20202;-69
2023/03/03 18:28:43;;;;;;;2.20;2.00;;;6.00;99.90;;;;;;4915734;29;20211;-67
2023/03/03 18:31:19;;;;;;;28.17;2.17;;;5.90;99.90;;;;;;4905121;29;20236;-70
2023/03/03 18:34:02;;;;;;;1.50;1.50;;;5.90;99.90;;;;;;4906351;29;20221;-69
2023/03/03 18:36:38;;;;;;;1.92;1.83;;;5.90;99.90;;;;;;4912055;29;20211;-69
2023/03/03 18:39:06;;;;;;;1.67;1.58;;;5.90;99.90;;;;;;4911619;29;20217;-68
2023/03/03 18:41:54;;;;;;;3.08;2.88;;;5.90;99.90;;;;;;4911161;29;20257;-69